Accueil
METAR-TAF:

METAR-TAF

Aéroports :

Aéroport de Clermont-Ferrand Auvergne

Clermont-Ferrand, France

latitude: 45-47N, longitude: 003-10E, altitude: 332 m

Observation

Le bulletin a été fait il y a 30 minutes, à 19:00 UTC
Vent 2 kt de nord/nord-ouest
Température 12°C
Humidité 67%
Pression 1019 hPa
Visibilité 10 km ou plus
Nuages épars à une hauteur de 6000 ft
Nuages épars à une hauteur de 11000 ft

METAR: LFLC 071900Z AUTO 34002KT 9999 SCT060 SCT110 12/06 Q1019 NOSIG

Heure: 21:30 (19:30 UTC)

Prévision

Le bulletin a été fait il y a 2 heures et 30 minutes, à 17:00 UTC
Prévision valable du 07 à 18 UTC au 08 à 18 UTC
Vent 5 kt de est
Visibilité 10 km ou plus
Nuages fragmentés à une hauteur de 5500 ft
Evoluant progressivement
du 07 à 23 UTC au 08 à 01 UTC
Vent 6 kt de sud
Visibilité 10 km ou plus
pas de nuages en-dessous de 1500 mètres et pas de cumulonimbus.

TAF: LFLC 071700Z 0718/0818 09005KT 9999 BKN055 BECMG 0723/0801 18006KT CAVOK

Observations et prévisions météorologiques de plus de 4000 aéroports (messages METAR et TAF).

Les stations disponibles sont représentées par des disques jaunes et rouges sur la carte.

Passer la souris dessus pour voir le nom de la station.

Cliquer dessus pour voir les observations et prévisions météorologiques.

Pour changer de carte: cliquez sur les boutons verts avec une croix noire pour zoomer, sur le bouton vert avec un tiret pour effectuer un zoom arrière, ou sur les flèches vertes pour les cartes adjacentes.


METAR-TAF: